Main page
METAR-TAF:

METAR-TAF

Airports :

Aswan International Airport

Aswan, Egypt

latitude: 23-58N, longitude: 032-47E, elevation: 200 m

Current weather observation

The report was made 33 minutes ago, at 18:00 UTC
Wind 11 kt from the North
Temperature 30°C
Humidity 19%
Pressure 1015 hPa
Visibility 10 km or more
no clouds below 1500 m and no cumulonimbus

METAR: HESN 211800Z 35011KT CAVOK 30/04 Q1015 NOSIG

Time: 20:33 (18:33 UTC)

Forecast

The report was made 1 hour and 33 minutes ago, at 17:00 UTC
Forecast valid from 21 at 18 UTC to 22 at 24 UTC
Wind 12 kt from the North
Visibility 10 km or more
no clouds below 1500 m and no cumulonimbus

TAF: HESN 211700Z 2118/2224 36012KT CAVOK

Weather observations and forecasts of more than 4000 airports (METAR and TAF reports).

The available stations are represented by yellow and red dots on the map.

Hover mouse over dot to see the name of the station.

Then click to see weather observations and forecasts.

To change the map : click on the green buttons with a black cross to zoom in, on the green button with a dash to zoom out, or on the green arrows for adjacent maps.


METAR-TAF: